sensor_id;sensor_type;location;lat;lon;timestamp;temperature;humidity
3275;DHT22;1649;53.672;10.064;2023-04-03T00:01:10;0.90;99.90
3275;DHT22;1649;53.672;10.064;2023-04-03T00:03:35;0.80;99.90
3275;DHT22;1649;53.672;10.064;2023-04-03T00:06:02;0.80;99.90
3275;DHT22;1649;53.672;10.064;2023-04-03T00:08:28;0.80;99.90
3275;DHT22;1649;53.672;10.064;2023-04-03T00:10:56;0.70;99.90
3275;DHT22;1649;53.672;10.064;2023-04-03T00:13:22;0.80;99.90
3275;DHT22;1649;53.672;10.064;2023-04-03T00:15:48;0.80;99.90
3275;DHT22;1649;53.672;10.064;2023-04-03T00:18:13;0.80;99.90
3275;DHT22;1649;53.672;10.064;2023-04-03T00:20:39;0.90;99.90
3275;DHT22;1649;53.672;10.064;2023-04-03T00:23:04;0.90;99.90
3275;DHT22;1649;53.672;10.064;2023-04-03T00:25:30;0.80;99.90
3275;DHT22;1649;53.672;10.064;2023-04-03T00:27:56;0.80;99.90
3275;DHT22;1649;53.672;10.064;2023-04-03T00:30:22;0.80;99.90
3275;DHT22;1649;53.672;10.064;2023-04-03T00:32:48;0.80;99.90
3275;DHT22;1649;53.672;10.064;2023-04-03T00:35:14;0.80;99.90
3275;DHT22;1649;53.672;10.064;2023-04-03T00:37:42;0.80;99.90
3275;DHT22;1649;53.672;10.064;2023-04-03T00:40:08;0.80;99.90
3275;DHT22;1649;53.672;10.064;2023-04-03T00:42:36;0.80;99.90
3275;DHT22;1649;53.672;10.064;2023-04-03T00:47:28;0.70;99.90
3275;DHT22;1649;53.672;10.064;2023-04-03T00:49:54;0.70;99.90
3275;DHT22;1649;53.672;10.064;2023-04-03T00:52:23;0.70;99.90
3275;DHT22;1649;53.672;10.064;2023-04-03T00:54:52;0.70;99.90
3275;DHT22;1649;53.672;10.064;2023-04-03T00:57:19;0.60;99.90
3275;DHT22;1649;53.672;10.064;2023-04-03T00:59:48;0.50;99.90
3275;DHT22;1649;53.672;10.064;2023-04-03T01:02:15;0.40;99.90
3275;DHT22;1649;53.672;10.064;2023-04-03T01:04:43;0.40;99.90
3275;DHT22;1649;53.672;10.064;2023-04-03T01:07:15;0.40;99.90
3275;DHT22;1649;53.672;10.064;2023-04-03T01:09:42;0.40;99.90
3275;DHT22;1649;53.672;10.064;2023-04-03T01:12:20;0.50;99.90
3275;DHT22;1649;53.672;10.064;2023-04-03T01:14:52;0.50;99.90
3275;DHT22;1649;53.672;10.064;2023-04-03T01:17:33;0.50;99.90
3275;DHT22;1649;53.672;10.064;2023-04-03T01:22:45;0.60;99.90
3275;DHT22;1649;53.672;10.064;2023-04-03T01:25:13;0.60;99.90
3275;DHT22;1649;53.672;10.064;2023-04-03T01:27:39;0.50;99.90
3275;DHT22;1649;53.672;10.064;2023-04-03T01:30:05;0.40;99.90
3275;DHT22;1649;53.672;10.064;2023-04-03T01:32:31;0.30;99.90
3275;DHT22;1649;53.672;10.064;2023-04-03T01:34:56;0.40;99.90
3275;DHT22;1649;53.672;10.064;2023-04-03T01:37:22;0.40;99.90
3275;DHT22;1649;53.672;10.064;2023-04-03T01:39:47;0.40;99.90
3275;DHT22;1649;53.672;10.064;2023-04-03T01:42:12;0.40;99.90
3275;DHT22;1649;53.672;10.064;2023-04-03T01:44:38;0.40;99.90
3275;DHT22;1649;53.672;10.064;2023-04-03T01:47:06;0.50;99.90
3275;DHT22;1649;53.672;10.064;2023-04-03T01:49:32;0.50;99.90
3275;DHT22;1649;53.672;10.064;2023-04-03T01:51:57;0.50;99.90
3275;DHT22;1649;53.672;10.064;2023-04-03T01:54:23;0.40;99.90
3275;DHT22;1649;53.672;10.064;2023-04-03T01:56:48;0.40;99.90
3275;DHT22;1649;53.672;10.064;2023-04-03T01:59:14;0.40;99.90
3275;DHT22;1649;53.672;10.064;2023-04-03T02:01:42;0.40;99.90
3275;DHT22;1649;53.672;10.064;2023-04-03T02:04:08;0.30;99.90
3275;DHT22;1649;53.672;10.064;2023-04-03T02:06:34;0.40;99.90
3275;DHT22;1649;53.672;10.064;2023-04-03T02:09:00;0.40;99.90
3275;DHT22;1649;53.672;10.064;2023-04-03T02:11:25;0.40;99.90
3275;DHT22;1649;53.672;10.064;2023-04-03T02:13:51;0.40;99.90
3275;DHT22;1649;53.672;10.064;2023-04-03T02:16:16;0.40;99.90
3275;DHT22;1649;53.672;10.064;2023-04-03T02:18:42;0.40;99.90
3275;DHT22;1649;53.672;10.064;2023-04-03T02:21:07;0.40;99.90
3275;DHT22;1649;53.672;10.064;2023-04-03T02:23:33;0.40;99.90
3275;DHT22;1649;53.672;10.064;2023-04-03T02:26:11;0.50;99.90
3275;DHT22;1649;53.672;10.064;2023-04-03T02:28:37;0.40;99.90
3275;DHT22;1649;53.672;10.064;2023-04-03T02:31:04;0.30;99.90
3275;DHT22;1649;53.672;10.064;2023-04-03T02:33:30;0.40;99.90
3275;DHT22;1649;53.672;10.064;2023-04-03T02:35:56;0.40;99.90
3275;DHT22;1649;53.672;10.064;2023-04-03T02:38:23;0.30;99.90
3275;DHT22;1649;53.672;10.064;2023-04-03T02:40:49;0.30;99.90
3275;DHT22;1649;53.672;10.064;2023-04-03T02:43:14;0.30;99.90
3275;DHT22;1649;53.672;10.064;2023-04-03T02:45:40;0.30;99.90
3275;DHT22;1649;53.672;10.064;2023-04-03T02:48:05;0.30;99.90
3275;DHT22;1649;53.672;10.064;2023-04-03T02:50:31;0.30;99.90
3275;DHT22;1649;53.672;10.064;2023-04-03T02:52:56;0.20;99.90
3275;DHT22;1649;53.672;10.064;2023-04-03T02:55:22;0.20;99.90
3275;DHT22;1649;53.672;10.064;2023-04-03T02:57:47;0.10;99.90
3275;DHT22;1649;53.672;10.064;2023-04-03T03:00:13;0.00;99.90
3275;DHT22;1649;53.672;10.064;2023-04-03T03:02:40;0.10;99.90
3275;DHT22;1649;53.672;10.064;2023-04-03T03:05:06;0.10;99.90
3275;DHT22;1649;53.672;10.064;2023-04-03T03:07:31;0.10;99.90
3275;DHT22;1649;53.672;10.064;2023-04-03T03:09:57;0.20;99.90
3275;DHT22;1649;53.672;10.064;2023-04-03T03:12:22;0.20;99.90
3275;DHT22;1649;53.672;10.064;2023-04-03T03:14:49;0.20;99.90
3275;DHT22;1649;53.672;10.064;2023-04-03T03:17:15;0.10;99.90
3275;DHT22;1649;53.672;10.064;2023-04-03T03:19:40;0.10;99.90
3275;DHT22;1649;53.672;10.064;2023-04-03T03:22:06;0.10;99.90
3275;DHT22;1649;53.672;10.064;2023-04-03T03:24:31;0.20;99.90
3275;DHT22;1649;53.672;10.064;2023-04-03T03:26:57;0.10;99.90
3275;DHT22;1649;53.672;10.064;2023-04-03T03:29:22;0.10;99.90
3275;DHT22;1649;53.672;10.064;2023-04-03T03:31:48;0.10;99.90
3275;DHT22;1649;53.672;10.064;2023-04-03T03:34:13;0.10;99.90
3275;DHT22;1649;53.672;10.064;2023-04-03T03:36:39;0.00;99.90
3275;DHT22;1649;53.672;10.064;2023-04-03T03:39:05;0.00;99.90
3275;DHT22;1649;53.672;10.064;2023-04-03T03:41:30;0.00;99.90
3275;DHT22;1649;53.672;10.064;2023-04-03T03:43:56;0.00;99.90
3275;DHT22;1649;53.672;10.064;2023-04-03T03:46:22;-0.10;99.90
3275;DHT22;1649;53.672;10.064;2023-04-03T03:48:47;-0.10;99.90
3275;DHT22;1649;53.672;10.064;2023-04-03T03:51:13;-0.10;99.90
3275;DHT22;1649;53.672;10.064;2023-04-03T03:53:38;-0.10;99.90
3275;DHT22;1649;53.672;10.064;2023-04-03T03:56:04;-0.10;99.90
3275;DHT22;1649;53.672;10.064;2023-04-03T03:58:31;-0.20;99.90
3275;DHT22;1649;53.672;10.064;2023-04-03T04:01:00;-0.20;99.90
3275;DHT22;1649;53.672;10.064;2023-04-03T04:03:26;-0.20;99.90
3275;DHT22;1649;53.672;10.064;2023-04-03T04:05:52;-0.20;99.90
3275;DHT22;1649;53.672;10.064;2023-04-03T04:08:17;-0.10;99.90
3275;DHT22;1649;53.672;10.064;2023-04-03T04:10:42;-0.10;99.90
3275;DHT22;1649;53.672;10.064;2023-04-03T04:13:08;-0.20;99.90
3275;DHT22;1649;53.672;10.064;2023-04-03T04:15:33;-0.30;99.90
3275;DHT22;1649;53.672;10.064;2023-04-03T04:17:59;-0.30;99.90
3275;DHT22;1649;53.672;10.064;2023-04-03T04:20:24;-0.30;99.90
3275;DHT22;1649;53.672;10.064;2023-04-03T04:22:50;-0.30;99.90
3275;DHT22;1649;53.672;10.064;2023-04-03T04:25:16;-0.30;99.90
3275;DHT22;1649;53.672;10.064;2023-04-03T04:27:41;-0.30;99.90
3275;DHT22;1649;53.672;10.064;2023-04-03T04:30:07;-0.30;99.90
3275;DHT22;1649;53.672;10.064;2023-04-03T04:32:33;-0.30;99.90
3275;DHT22;1649;53.672;10.064;2023-04-03T04:34:58;-0.30;99.90
3275;DHT22;1649;53.672;10.064;2023-04-03T04:37:24;-0.30;99.90
3275;DHT22;1649;53.672;10.064;2023-04-03T04:39:50;-0.30;99.90
3275;DHT22;1649;53.672;10.064;2023-04-03T04:42:15;-0.30;99.90
3275;DHT22;1649;53.672;10.064;2023-04-03T04:44:41;-0.30;99.90
3275;DHT22;1649;53.672;10.064;2023-04-03T04:47:06;-0.40;99.90
3275;DHT22;1649;53.672;10.064;2023-04-03T04:49:32;-0.40;99.90
3275;DHT22;1649;53.672;10.064;2023-04-03T04:51:57;-0.40;99.90
3275;DHT22;1649;53.672;10.064;2023-04-03T04:54:23;-0.30;99.90
3275;DHT22;1649;53.672;10.064;2023-04-03T04:56:48;-0.30;99.90
3275;DHT22;1649;53.672;10.064;2023-04-03T04:59:13;-0.30;99.90
3275;DHT22;1649;53.672;10.064;2023-04-03T05:01:39;-0.30;99.90
3275;DHT22;1649;53.672;10.064;2023-04-03T05:04:05;-0.30;99.90
3275;DHT22;1649;53.672;10.064;2023-04-03T05:06:31;-0.30;99.90
3275;DHT22;1649;53.672;10.064;2023-04-03T05:08:57;-0.30;99.90
3275;DHT22;1649;53.672;10.064;2023-04-03T05:11:23;-0.30;99.90
3275;DHT22;1649;53.672;10.064;2023-04-03T05:13:49;-0.30;99.90
3275;DHT22;1649;53.672;10.064;2023-04-03T05:16:14;-0.30;99.90
3275;DHT22;1649;53.672;10.064;2023-04-03T05:18:40;-0.30;99.90
3275;DHT22;1649;53.672;10.064;2023-04-03T05:21:05;-0.20;99.90
3275;DHT22;1649;53.672;10.064;2023-04-03T05:23:31;-0.30;99.90
3275;DHT22;1649;53.672;10.064;2023-04-03T05:25:57;-0.30;99.90
3275;DHT22;1649;53.672;10.064;2023-04-03T05:28:22;-0.30;99.90
3275;DHT22;1649;53.672;10.064;2023-04-03T05:30:55;-0.20;99.90
3275;DHT22;1649;53.672;10.064;2023-04-03T05:33:21;-0.20;99.90
3275;DHT22;1649;53.672;10.064;2023-04-03T05:35:47;-0.20;99.90
3275;DHT22;1649;53.672;10.064;2023-04-03T05:38:13;-0.20;99.90
3275;DHT22;1649;53.672;10.064;2023-04-03T05:40:38;-0.20;99.90
3275;DHT22;1649;53.672;10.064;2023-04-03T05:43:04;-0.20;99.90
3275;DHT22;1649;53.672;10.064;2023-04-03T05:45:30;-0.20;99.90
3275;DHT22;1649;53.672;10.064;2023-04-03T05:47:55;-0.10;99.90
3275;DHT22;1649;53.672;10.064;2023-04-03T05:50:21;-0.10;99.90
3275;DHT22;1649;53.672;10.064;2023-04-03T05:52:48;-0.10;99.90
3275;DHT22;1649;53.672;10.064;2023-04-03T05:55:14;0.00;99.90
3275;DHT22;1649;53.672;10.064;2023-04-03T05:57:39;0.10;99.90
3275;DHT22;1649;53.672;10.064;2023-04-03T06:00:06;0.10;99.90
3275;DHT22;1649;53.672;10.064;2023-04-03T06:02:32;0.10;99.90
3275;DHT22;1649;53.672;10.064;2023-04-03T06:04:58;0.20;99.90
3275;DHT22;1649;53.672;10.064;2023-04-03T06:07:24;0.30;99.90
3275;DHT22;1649;53.672;10.064;2023-04-03T06:09:54;0.40;99.90
3275;DHT22;1649;53.672;10.064;2023-04-03T06:12:20;0.50;99.90
3275;DHT22;1649;53.672;10.064;2023-04-03T06:14:46;0.70;99.90
3275;DHT22;1649;53.672;10.064;2023-04-03T06:17:11;0.90;99.90
3275;DHT22;1649;53.672;10.064;2023-04-03T06:19:37;1.20;99.90
3275;DHT22;1649;53.672;10.064;2023-04-03T06:22:03;1.50;99.90
3275;DHT22;1649;53.672;10.064;2023-04-03T06:24:29;2.10;99.90
3275;DHT22;1649;53.672;10.064;2023-04-03T06:26:55;3.10;99.90
3275;DHT22;1649;53.672;10.064;2023-04-03T06:29:21;4.30;99.90
3275;DHT22;1649;53.672;10.064;2023-04-03T06:31:46;5.20;99.90
3275;DHT22;1649;53.672;10.064;2023-04-03T06:34:12;5.70;99.90
3275;DHT22;1649;53.672;10.064;2023-04-03T06:36:39;6.10;99.90
3275;DHT22;1649;53.672;10.064;2023-04-03T06:39:05;6.60;99.90
3275;DHT22;1649;53.672;10.064;2023-04-03T06:41:31;7.50;99.90
3275;DHT22;1649;53.672;10.064;2023-04-03T06:43:56;8.10;99.90
3275;DHT22;1649;53.672;10.064;2023-04-03T06:46:24;8.80;99.90
3275;DHT22;1649;53.672;10.064;2023-04-03T06:48:50;9.00;97.90
3275;DHT22;1649;53.672;10.064;2023-04-03T06:51:21;9.30;95.10
3275;DHT22;1649;53.672;10.064;2023-04-03T06:53:47;9.60;94.50
3275;DHT22;1649;53.672;10.064;2023-04-03T06:56:13;9.60;93.90
3275;DHT22;1649;53.672;10.064;2023-04-03T06:58:39;9.40;93.90
3275;DHT22;1649;53.672;10.064;2023-04-03T07:01:05;9.20;92.30
3275;DHT22;1649;53.672;10.064;2023-04-03T07:03:31;8.90;93.40
3275;DHT22;1649;53.672;10.064;2023-04-03T07:05:57;8.90;94.10
3275;DHT22;1649;53.672;10.064;2023-04-03T07:08:22;9.00;93.50
3275;DHT22;1649;53.672;10.064;2023-04-03T07:10:49;8.70;94.40
3275;DHT22;1649;53.672;10.064;2023-04-03T07:13:15;8.00;98.10
3275;DHT22;1649;53.672;10.064;2023-04-03T07:15:41;7.30;99.90
3275;DHT22;1649;53.672;10.064;2023-04-03T07:18:06;6.70;99.90
3275;DHT22;1649;53.672;10.064;2023-04-03T07:20:32;6.30;99.90
3275;DHT22;1649;53.672;10.064;2023-04-03T07:22:57;6.10;99.90
3275;DHT22;1649;53.672;10.064;2023-04-03T07:25:23;5.70;99.90
3275;DHT22;1649;53.672;10.064;2023-04-03T07:27:48;5.50;99.90
3275;DHT22;1649;53.672;10.064;2023-04-03T07:30:14;5.20;99.90
3275;DHT22;1649;53.672;10.064;2023-04-03T07:32:40;5.20;99.90
3275;DHT22;1649;53.672;10.064;2023-04-03T07:35:06;5.00;99.90
3275;DHT22;1649;53.672;10.064;2023-04-03T07:37:32;4.80;99.90
3275;DHT22;1649;53.672;10.064;2023-04-03T07:39:58;4.70;99.90
3275;DHT22;1649;53.672;10.064;2023-04-03T07:42:24;4.80;99.90
3275;DHT22;1649;53.672;10.064;2023-04-03T07:44:53;5.40;99.90
3275;DHT22;1649;53.672;10.064;2023-04-03T07:47:18;6.30;99.90
3275;DHT22;1649;53.672;10.064;2023-04-03T07:49:45;7.40;99.90
3275;DHT22;1649;53.672;10.064;2023-04-03T07:52:11;8.10;99.90
3275;DHT22;1649;53.672;10.064;2023-04-03T07:54:37;9.00;95.40
3275;DHT22;1649;53.672;10.064;2023-04-03T07:57:02;9.50;94.80
3275;DHT22;1649;53.672;10.064;2023-04-03T07:59:28;9.80;90.60
3275;DHT22;1649;53.672;10.064;2023-04-03T08:01:53;9.80;87.90
3275;DHT22;1649;53.672;10.064;2023-04-03T08:04:19;9.60;89.30
3275;DHT22;1649;53.672;10.064;2023-04-03T08:06:44;8.90;89.50
3275;DHT22;1649;53.672;10.064;2023-04-03T08:09:10;9.00;90.40
3275;DHT22;1649;53.672;10.064;2023-04-03T08:11:38;8.90;88.10
3275;DHT22;1649;53.672;10.064;2023-04-03T08:14:03;8.70;90.20
3275;DHT22;1649;53.672;10.064;2023-04-03T08:16:29;8.30;90.60
3275;DHT22;1649;53.672;10.064;2023-04-03T08:18:55;7.60;92.20
3275;DHT22;1649;53.672;10.064;2023-04-03T08:21:20;6.80;95.20
3275;DHT22;1649;53.672;10.064;2023-04-03T08:23:48;6.30;97.80
3275;DHT22;1649;53.672;10.064;2023-04-03T08:26:17;6.20;99.80
3275;DHT22;1649;53.672;10.064;2023-04-03T08:28:42;6.10;99.90
3275;DHT22;1649;53.672;10.064;2023-04-03T08:31:11;6.40;99.20
3275;DHT22;1649;53.672;10.064;2023-04-03T08:33:38;7.10;98.30
3275;DHT22;1649;53.672;10.064;2023-04-03T08:36:05;8.20;95.30
3275;DHT22;1649;53.672;10.064;2023-04-03T08:38:31;8.90;92.10
3275;DHT22;1649;53.672;10.064;2023-04-03T08:41:06;9.30;88.40
3275;DHT22;1649;53.672;10.064;2023-04-03T08:43:37;9.70;87.20
3275;DHT22;1649;53.672;10.064;2023-04-03T08:46:11;10.40;86.30
3275;DHT22;1649;53.672;10.064;2023-04-03T08:48:41;11.00;86.00
3275;DHT22;1649;53.672;10.064;2023-04-03T08:51:15;11.50;81.70
3275;DHT22;1649;53.672;10.064;2023-04-03T08:53:58;12.10;84.50
3275;DHT22;1649;53.672;10.064;2023-04-03T08:56:24;12.90;81.50
3275;DHT22;1649;53.672;10.064;2023-04-03T08:59:00;13.10;80.60
3275;DHT22;1649;53.672;10.064;2023-04-03T09:01:36;13.60;78.80
3275;DHT22;1649;53.672;10.064;2023-04-03T09:04:13;13.50;68.40
3275;DHT22;1649;53.672;10.064;2023-04-03T09:06:39;13.20;72.30
3275;DHT22;1649;53.672;10.064;2023-04-03T09:09:23;13.00;71.90
3275;DHT22;1649;53.672;10.064;2023-04-03T09:17:03;13.80;68.00
3275;DHT22;1649;53.672;10.064;2023-04-03T09:19:54;13.90;69.10
3275;DHT22;1649;53.672;10.064;2023-04-03T09:22:24;14.00;71.30
3275;DHT22;1649;53.672;10.064;2023-04-03T09:25:04;14.00;68.20
3275;DHT22;1649;53.672;10.064;2023-04-03T09:27:31;13.80;66.60
3275;DHT22;1649;53.672;10.064;2023-04-03T09:29:57;13.60;64.00
3275;DHT22;1649;53.672;10.064;2023-04-03T09:32:35;13.30;64.30
3275;DHT22;1649;53.672;10.064;2023-04-03T09:35:26;13.40;66.30
3275;DHT22;1649;53.672;10.064;2023-04-03T09:37:59;13.80;69.70
3275;DHT22;1649;53.672;10.064;2023-04-03T09:42:58;14.30;65.30
3275;DHT22;1649;53.672;10.064;2023-04-03T09:48:24;13.70;67.80
3275;DHT22;1649;53.672;10.064;2023-04-03T09:50:57;13.40;59.10
3275;DHT22;1649;53.672;10.064;2023-04-03T09:53:41;13.20;62.40
3275;DHT22;1649;53.672;10.064;2023-04-03T09:58:43;13.30;59.80
3275;DHT22;1649;53.672;10.064;2023-04-03T10:04:09;13.10;59.90
3275;DHT22;1649;53.672;10.064;2023-04-03T10:06:40;13.40;63.60
3275;DHT22;1649;53.672;10.064;2023-04-03T10:09:24;13.90;66.90
3275;DHT22;1649;53.672;10.064;2023-04-03T10:12:07;13.90;63.80
3275;DHT22;1649;53.672;10.064;2023-04-03T10:14:35;13.70;59.70
3275;DHT22;1649;53.672;10.064;2023-04-03T10:17:20;13.40;59.30
3275;DHT22;1649;53.672;10.064;2023-04-03T10:28:45;12.20;58.30
3275;DHT22;1649;53.672;10.064;2023-04-03T10:31:36;12.40;59.70
3275;DHT22;1649;53.672;10.064;2023-04-03T10:42:42;11.90;57.20
3275;DHT22;1649;53.672;10.064;2023-04-03T10:45:23;11.60;57.90
3275;DHT22;1649;53.672;10.064;2023-04-03T10:50:43;10.60;59.10
3275;DHT22;1649;53.672;10.064;2023-04-03T10:53:34;11.00;68.10
3275;DHT22;1649;53.672;10.064;2023-04-03T10:58:36;12.10;64.20
3275;DHT22;1649;53.672;10.064;2023-04-03T11:01:11;11.70;61.10
3275;DHT22;1649;53.672;10.064;2023-04-03T11:03:41;11.10;61.10
3275;DHT22;1649;53.672;10.064;2023-04-03T11:06:10;10.60;59.70
3275;DHT22;1649;53.672;10.064;2023-04-03T11:11:24;9.50;65.70
3275;DHT22;1649;53.672;10.064;2023-04-03T11:14:13;9.80;69.90
3275;DHT22;1649;53.672;10.064;2023-04-03T11:16:48;10.00;64.20
3275;DHT22;1649;53.672;10.064;2023-04-03T11:19:21;10.30;67.00
3275;DHT22;1649;53.672;10.064;2023-04-03T11:22:00;10.80;67.10
3275;DHT22;1649;53.672;10.064;2023-04-03T11:24:32;11.50;68.90
3275;DHT22;1649;53.672;10.064;2023-04-03T11:27:00;11.20;61.80
3275;DHT22;1649;53.672;10.064;2023-04-03T11:29:35;10.90;60.40
3275;DHT22;1649;53.672;10.064;2023-04-03T11:34:54;11.40;67.90
3275;DHT22;1649;53.672;10.064;2023-04-03T11:37:46;11.70;65.40
3275;DHT22;1649;53.672;10.064;2023-04-03T11:42:46;10.90;66.00
3275;DHT22;1649;53.672;10.064;2023-04-03T11:47:51;9.40;62.10
3275;DHT22;1649;53.672;10.064;2023-04-03T12:14:04;10.30;59.70
3275;DHT22;1649;53.672;10.064;2023-04-03T12:16:34;10.30;58.70
3275;DHT22;1649;53.672;10.064;2023-04-03T12:24:35;11.00;61.40
3275;DHT22;1649;53.672;10.064;2023-04-03T12:37:57;10.90;58.90
3275;DHT22;1649;53.672;10.064;2023-04-03T12:43:42;10.00;58.40
3275;DHT22;1649;53.672;10.064;2023-04-03T12:46:17;9.80;62.80
3275;DHT22;1649;53.672;10.064;2023-04-03T12:48:50;9.80;60.00
3275;DHT22;1649;53.672;10.064;2023-04-03T12:51:38;10.10;61.50
3275;DHT22;1649;53.672;10.064;2023-04-03T12:56:39;10.70;61.20
3275;DHT22;1649;53.672;10.064;2023-04-03T12:59:22;10.50;59.90
3275;DHT22;1649;53.672;10.064;2023-04-03T13:02:02;10.40;60.20
3275;DHT22;1649;53.672;10.064;2023-04-03T13:04:31;10.30;61.80
3275;DHT22;1649;53.672;10.064;2023-04-03T13:06:57;10.30;59.70
3275;DHT22;1649;53.672;10.064;2023-04-03T13:09:24;10.10;58.30
3275;DHT22;1649;53.672;10.064;2023-04-03T13:12:03;10.20;61.10
3275;DHT22;1649;53.672;10.064;2023-04-03T13:14:29;10.10;61.40
3275;DHT22;1649;53.672;10.064;2023-04-03T13:16:56;10.30;63.40
3275;DHT22;1649;53.672;10.064;2023-04-03T13:19:24;10.20;61.00
3275;DHT22;1649;53.672;10.064;2023-04-03T13:22:01;10.40;63.30
3275;DHT22;1649;53.672;10.064;2023-04-03T13:24:29;10.40;59.60
3275;DHT22;1649;53.672;10.064;2023-04-03T13:26:55;10.00;59.40
3275;DHT22;1649;53.672;10.064;2023-04-03T13:29:26;10.20;63.50
3275;DHT22;1649;53.672;10.064;2023-04-03T13:31:55;10.30;60.30
3275;DHT22;1649;53.672;10.064;2023-04-03T13:34:23;10.10;59.10
3275;DHT22;1649;53.672;10.064;2023-04-03T13:36:59;10.10;61.40
3275;DHT22;1649;53.672;10.064;2023-04-03T13:39:28;10.00;58.50
3275;DHT22;1649;53.672;10.064;2023-04-03T13:41:57;10.10;59.30
3275;DHT22;1649;53.672;10.064;2023-04-03T13:46:53;10.20;59.70
3275;DHT22;1649;53.672;10.064;2023-04-03T13:51:56;10.10;58.80
3275;DHT22;1649;53.672;10.064;2023-04-03T13:54:37;10.20;59.50
3275;DHT22;1649;53.672;10.064;2023-04-03T13:57:10;10.00;60.10
3275;DHT22;1649;53.672;10.064;2023-04-03T13:59:36;9.80;60.70
3275;DHT22;1649;53.672;10.064;2023-04-03T14:04:30;9.80;62.30
3275;DHT22;1649;53.672;10.064;2023-04-03T14:06:57;9.80;61.20
3275;DHT22;1649;53.672;10.064;2023-04-03T14:09:24;9.90;63.60
3275;DHT22;1649;53.672;10.064;2023-04-03T14:11:53;9.90;63.70
3275;DHT22;1649;53.672;10.064;2023-04-03T14:14:30;9.90;63.70
3275;DHT22;1649;53.672;10.064;2023-04-03T14:16:59;9.90;65.10
3275;DHT22;1649;53.672;10.064;2023-04-03T14:19:29;9.80;64.70
3275;DHT22;1649;53.672;10.064;2023-04-03T14:21:55;10.00;64.20
3275;DHT22;1649;53.672;10.064;2023-04-03T14:24:22;9.90;63.20
3275;DHT22;1649;53.672;10.064;2023-04-03T14:26:49;9.90;64.60
3275;DHT22;1649;53.672;10.064;2023-04-03T14:29:15;10.00;65.30
3275;DHT22;1649;53.672;10.064;2023-04-03T14:31:43;10.20;64.60
3275;DHT22;1649;53.672;10.064;2023-04-03T14:34:10;10.10;62.00
3275;DHT22;1649;53.672;10.064;2023-04-03T14:36:36;10.10;64.30
3275;DHT22;1649;53.672;10.064;2023-04-03T14:39:03;9.90;63.40
3275;DHT22;1649;53.672;10.064;2023-04-03T14:41:29;10.20;65.10
3275;DHT22;1649;53.672;10.064;2023-04-03T14:43:55;10.20;64.20
3275;DHT22;1649;53.672;10.064;2023-04-03T14:46:31;10.20;64.50
3275;DHT22;1649;53.672;10.064;2023-04-03T14:48:57;9.90;63.40
3275;DHT22;1649;53.672;10.064;2023-04-03T14:51:23;9.80;62.70
3275;DHT22;1649;53.672;10.064;2023-04-03T14:53:49;9.60;64.40
3275;DHT22;1649;53.672;10.064;2023-04-03T14:56:18;9.10;64.10
3275;DHT22;1649;53.672;10.064;2023-04-03T14:58:47;8.80;66.40
3275;DHT22;1649;53.672;10.064;2023-04-03T15:01:15;8.60;66.50
3275;DHT22;1649;53.672;10.064;2023-04-03T15:03:41;8.40;67.90
3275;DHT22;1649;53.672;10.064;2023-04-03T15:06:10;8.30;69.50
3275;DHT22;1649;53.672;10.064;2023-04-03T15:08:36;8.30;68.10
3275;DHT22;1649;53.672;10.064;2023-04-03T15:11:02;8.50;69.60
3275;DHT22;1649;53.672;10.064;2023-04-03T15:13:27;8.70;68.90
3275;DHT22;1649;53.672;10.064;2023-04-03T15:15:53;8.80;67.40
3275;DHT22;1649;53.672;10.064;2023-04-03T15:18:24;8.80;67.10
3275;DHT22;1649;53.672;10.064;2023-04-03T15:20:51;8.80;67.10
3275;DHT22;1649;53.672;10.064;2023-04-03T15:23:17;8.80;67.40
3275;DHT22;1649;53.672;10.064;2023-04-03T15:25:44;8.90;67.90
3275;DHT22;1649;53.672;10.064;2023-04-03T15:28:22;9.00;68.50
3275;DHT22;1649;53.672;10.064;2023-04-03T15:30:48;9.00;68.50
3275;DHT22;1649;53.672;10.064;2023-04-03T15:33:14;9.00;67.60
3275;DHT22;1649;53.672;10.064;2023-04-03T15:35:41;8.90;67.70
3275;DHT22;1649;53.672;10.064;2023-04-03T15:38:06;8.90;68.90
3275;DHT22;1649;53.672;10.064;2023-04-03T15:40:32;8.80;68.40
3275;DHT22;1649;53.672;10.064;2023-04-03T15:42:58;8.60;68.10
3275;DHT22;1649;53.672;10.064;2023-04-03T15:45:23;8.40;67.70
3275;DHT22;1649;53.672;10.064;2023-04-03T15:47:49;8.30;68.50
3275;DHT22;1649;53.672;10.064;2023-04-03T15:50:15;8.00;67.80
3275;DHT22;1649;53.672;10.064;2023-04-03T15:52:41;7.80;69.80
3275;DHT22;1649;53.672;10.064;2023-04-03T15:55:06;7.70;69.10
3275;DHT22;1649;53.672;10.064;2023-04-03T15:57:32;7.70;69.80
3275;DHT22;1649;53.672;10.064;2023-04-03T15:59:57;7.70;69.50
3275;DHT22;1649;53.672;10.064;2023-04-03T16:02:23;7.70;69.30
3275;DHT22;1649;53.672;10.064;2023-04-03T16:04:49;7.80;70.10
3275;DHT22;1649;53.672;10.064;2023-04-03T16:07:15;8.00;71.90
3275;DHT22;1649;53.672;10.064;2023-04-03T16:09:40;8.20;71.00
3275;DHT22;1649;53.672;10.064;2023-04-03T16:12:06;8.30;70.80
3275;DHT22;1649;53.672;10.064;2023-04-03T16:14:31;8.10;72.00
3275;DHT22;1649;53.672;10.064;2023-04-03T16:16:58;7.90;72.50
3275;DHT22;1649;53.672;10.064;2023-04-03T16:19:24;7.90;74.10
3275;DHT22;1649;53.672;10.064;2023-04-03T16:21:49;8.00;73.70
3275;DHT22;1649;53.672;10.064;2023-04-03T16:24:15;7.70;72.30
3275;DHT22;1649;53.672;10.064;2023-04-03T16:26:40;7.50;72.10
3275;DHT22;1649;53.672;10.064;2023-04-03T16:29:06;7.40;74.00
3275;DHT22;1649;53.672;10.064;2023-04-03T16:31:32;7.30;74.70
3275;DHT22;1649;53.672;10.064;2023-04-03T16:33:58;7.50;76.90
3275;DHT22;1649;53.672;10.064;2023-04-03T16:36:25;7.10;76.50
3275;DHT22;1649;53.672;10.064;2023-04-03T16:38:51;7.00;77.60
3275;DHT22;1649;53.672;10.064;2023-04-03T16:41:16;6.80;78.40
3275;DHT22;1649;53.672;10.064;2023-04-03T16:43:42;6.70;80.20
3275;DHT22;1649;53.672;10.064;2023-04-03T16:46:08;6.70;82.30
3275;DHT22;1649;53.672;10.064;2023-04-03T16:48:33;6.60;83.10
3275;DHT22;1649;53.672;10.064;2023-04-03T16:51:00;6.50;84.90
3275;DHT22;1649;53.672;10.064;2023-04-03T16:53:26;6.50;88.60
3275;DHT22;1649;53.672;10.064;2023-04-03T16:55:52;6.60;90.50
3275;DHT22;1649;53.672;10.064;2023-04-03T16:58:18;6.50;88.90
3275;DHT22;1649;53.672;10.064;2023-04-03T17:00:43;6.50;87.90
3275;DHT22;1649;53.672;10.064;2023-04-03T17:03:09;6.30;89.40
3275;DHT22;1649;53.672;10.064;2023-04-03T17:05:35;6.30;90.90
3275;DHT22;1649;53.672;10.064;2023-04-03T17:08:01;6.30;93.10
3275;DHT22;1649;53.672;10.064;2023-04-03T17:10:27;6.40;92.40
3275;DHT22;1649;53.672;10.064;2023-04-03T17:12:52;6.20;90.70
3275;DHT22;1649;53.672;10.064;2023-04-03T17:15:18;6.20;93.40
3275;DHT22;1649;53.672;10.064;2023-04-03T17:17:45;6.30;94.00
3275;DHT22;1649;53.672;10.064;2023-04-03T17:20:11;6.30;94.60
3275;DHT22;1649;53.672;10.064;2023-04-03T17:22:37;6.10;93.00
3275;DHT22;1649;53.672;10.064;2023-04-03T17:25:03;6.00;94.80
3275;DHT22;1649;53.672;10.064;2023-04-03T17:27:29;5.90;94.80
3275;DHT22;1649;53.672;10.064;2023-04-03T17:29:54;5.70;93.10
3275;DHT22;1649;53.672;10.064;2023-04-03T17:32:20;5.70;94.00
3275;DHT22;1649;53.672;10.064;2023-04-03T17:34:46;5.50;92.30
3275;DHT22;1649;53.672;10.064;2023-04-03T17:37:12;5.40;93.00
3275;DHT22;1649;53.672;10.064;2023-04-03T17:39:38;5.30;93.30
3275;DHT22;1649;53.672;10.064;2023-04-03T17:42:03;5.30;93.80
3275;DHT22;1649;53.672;10.064;2023-04-03T17:44:29;5.30;95.70
3275;DHT22;1649;53.672;10.064;2023-04-03T17:46:54;5.20;95.50
3275;DHT22;1649;53.672;10.064;2023-04-03T17:49:20;5.30;99.60